Time;durP1;ratioP1;P1;durP2;ratioP2;P2;SDS_P1;SDS_P2;PMS_P1;PMS_P2;Temp;Humidity;BMP_temperature;BMP_pressure;BME280_temperature;BME280_humidity;BME280_pressure;Samples;Min_cycle;Max_cycle;Signal;HPM_P1;HPM_P2
2022/01/27 00:05:53;;;;;;;;;48.50;41.50;;;;;-1.19;100.00;100379.56;6315818;20;2862742;-40
2022/01/27 00:08:47;;;;;;;;;48.50;40.00;;;;;-1.26;100.00;100377.84;6281493;20;2864870;-39
2022/01/27 00:11:15;;;;;;;;;55.50;44.00;;;;;-1.37;100.00;100377.88;6278793;20;2502411;-39
2022/01/27 00:13:48;;;;;;;;;48.00;42.00;;;;;-1.20;100.00;100387.50;6277804;20;2500268;-38
2022/01/27 00:16:25;;;;;;;;;60.00;42.00;;;;;-1.13;100.00;100390.09;6281065;20;2878421;-39
2022/01/27 00:18:56;;;;;;;;;57.50;44.50;;;;;-1.18;100.00;100393.63;6277307;20;2500297;-39
2022/01/27 00:21:30;;;;;;;;;53.00;41.00;;;;;-1.14;100.00;100404.16;6282958;20;2869049;-39
2022/01/27 00:23:59;;;;;;;;;64.50;45.50;;;;;-1.05;100.00;100400.63;6277288;20;2499235;-39
2022/01/27 00:26:28;;;;;;;;;66.50;49.50;;;;;-1.02;100.00;100411.16;6283088;20;2856534;-39
2022/01/27 00:28:56;;;;;;;;;53.00;43.50;;;;;-1.05;100.00;100410.28;6281624;20;2877400;-39
2022/01/27 00:31:25;;;;;;;;;50.50;35.50;;;;;-0.87;100.00;100410.22;6283262;20;2872156;-39
2022/01/27 00:33:55;;;;;;;;;57.50;44.00;;;;;-0.73;100.00;100408.41;6281417;20;2871379;-39
2022/01/27 00:36:25;;;;;;;;;66.67;44.67;;;;;-0.70;100.00;100404.91;6282105;20;2882671;-39
2022/01/27 00:38:53;;;;;;;;;55.00;44.50;;;;;-0.70;100.00;100403.13;6310540;20;2500267;-40
2022/01/27 00:41:22;;;;;;;;;50.50;36.50;;;;;-0.48;100.00;100416.22;6282761;20;2867086;-40
2022/01/27 00:43:50;;;;;;;;;57.50;41.00;;;;;-0.69;100.00;100406.63;6278476;20;2500298;-39
2022/01/27 00:46:20;;;;;;;;;48.00;40.50;;;;;-0.81;100.00;100407.56;6283322;20;2854450;-40
2022/01/27 00:48:50;;;;;;;;;42.50;38.00;;;;;-0.61;100.00;100393.41;6282622;20;2860678;-39
2022/01/27 00:51:22;;;;;;;;;67.00;44.00;;;;;-0.82;100.00;100399.66;6282454;20;2878361;-39
2022/01/27 00:54:18;;;;;;;;;53.00;37.50;;;;;-0.80;100.00;100396.13;6281730;20;2872144;-39
2022/01/27 01:02:00;;;;;;;;;51.50;41.00;;;;;-0.92;100.00;100398.84;6281280;20;2862779;-39
2022/01/27 01:04:30;;;;;;;;;53.00;43.50;;;;;-1.06;100.00;100392.72;6279867;20;2852370;-39
2022/01/27 01:07:00;;;;;;;;;50.50;36.50;;;;;-1.15;100.00;100399.78;6283031;20;2875245;-39
2022/01/27 01:10:25;;;;;;;;;43.00;34.00;;;;;-1.37;100.00;100390.13;6281343;20;2867988;-39
2022/01/27 01:15:29;;;;;;;;;51.50;42.50;;;;;-1.30;100.00;100381.34;6282494;20;2500296;-39
2022/01/27 01:33:59;;;;;;;;;51.50;36.00;;;;;-0.90;100.00;100390.00;6283123;20;2500390;-39
2022/01/27 01:36:44;;;;;;;;;48.00;36.50;;;;;-1.04;100.00;100391.81;6285357;20;2860791;-39
2022/01/27 01:39:12;;;;;;;;;58.00;40.00;;;;;-1.13;100.00;100383.97;6281742;20;2500397;-39
2022/01/27 01:41:42;;;;;;;;;41.00;35.00;;;;;-1.02;100.00;100381.31;6283982;20;2500276;-39
2022/01/27 01:44:10;;;;;;;;;50.00;41.50;;;;;-1.25;100.00;100373.44;6282587;20;2500240;-40
2022/01/27 01:46:39;;;;;;;;;47.50;36.00;;;;;-1.32;100.00;100364.66;6283316;20;2500398;-39
2022/01/27 01:49:08;;;;;;;;;48.00;34.00;;;;;-1.20;100.00;100367.28;6285915;20;2857570;-39
2022/01/27 01:51:40;;;;;;;;;42.50;36.00;;;;;-1.12;100.00;100373.41;6284716;20;2500331;-40
2022/01/27 01:54:09;;;;;;;;;49.50;41.00;;;;;-0.94;100.00;100375.09;6284422;20;2500312;-39
2022/01/27 01:56:41;;;;;;;;;47.00;34.00;;;;;-0.98;100.00;100380.38;6284090;20;2875291;-39
2022/01/27 01:59:11;;;;;;;;;50.00;40.00;;;;;-1.39;100.00;100374.34;6286677;20;2864822;-39
2022/01/27 02:01:40;;;;;;;;;61.50;47.00;;;;;-1.16;100.00;100376.94;6282256;20;2500344;-39
2022/01/27 02:04:11;;;;;;;;;43.50;36.50;;;;;-1.19;100.00;100378.69;6283104;20;2840904;-38
2022/01/27 02:06:54;;;;;;;;;45.50;38.00;;;;;-0.97;100.00;100387.44;6283584;20;2500428;-40
2022/01/27 02:20:22;;;;;;;;;58.33;40.67;;;;;-1.29;100.00;100361.16;6285550;20;2889909;-39
2022/01/27 02:22:51;;;;;;;;;49.50;43.00;;;;;-1.17;100.00;100361.13;6315367;20;2844087;-39
2022/01/27 02:25:19;;;;;;;;;48.00;38.50;;;;;-1.04;100.00;100359.34;6281518;20;2500259;-39
2022/01/27 02:27:47;;;;;;;;;53.50;38.50;;;;;-1.06;100.00;100358.47;6282460;20;2500406;-39
2022/01/27 02:30:16;;;;;;;;;64.33;43.33;;;;;-0.91;100.00;100359.28;6283041;20;2893130;-39
2022/01/27 02:32:45;;;;;;;;;62.00;44.00;;;;;-0.98;100.00;100359.31;6315888;20;2872159;-39
2022/01/27 02:35:13;;;;;;;;;56.00;40.00;;;;;-0.97;100.00;100358.44;6279303;20;2500236;-39
2022/01/27 02:37:41;;;;;;;;;57.00;45.50;;;;;-1.14;100.00;100346.19;6280022;20;2500286;-39
2022/01/27 02:40:12;;;;;;;;;64.50;46.00;;;;;-1.00;100.00;100339.97;6284593;20;2872147;-39
2022/01/27 02:42:42;;;;;;;;;49.33;36.00;;;;;-1.00;100.00;100339.97;6283635;20;2882560;-39
2022/01/27 02:45:35;;;;;;;;;50.00;41.00;;;;;-0.80;100.00;100351.31;6314190;20;2867993;-39
2022/01/27 02:48:04;;;;;;;;;68.00;52.00;;;;;-1.15;100.00;100347.06;6281370;20;2500618;-39
2022/01/27 02:50:32;;;;;;;;;65.00;49.00;;;;;-1.06;100.00;100342.66;6282473;20;2492976;-39
2022/01/27 02:53:00;;;;;;;;;69.00;49.50;;;;;-1.27;100.00;100328.66;6309354;20;2500251;-39
2022/01/27 02:55:29;;;;;;;;;71.50;54.50;;;;;-1.36;100.00;100328.69;6284805;20;2878456;-39
2022/01/27 02:57:59;;;;;;;;;70.00;51.50;;;;;-1.28;100.00;100321.66;6281283;20;2875276;-39
2022/01/27 03:00:28;;;;;;;;;72.00;52.00;;;;;-1.22;100.00;100328.66;6283395;20;2871150;-39
2022/01/27 03:02:56;;;;;;;;;43.00;41.00;;;;;-1.23;100.00;100329.53;6276137;20;2506551;-39
2022/01/27 03:05:26;;;;;;;;;63.00;46.50;;;;;-1.42;100.00;100320.78;6280699;20;2864968;-39
2022/01/27 03:07:55;;;;;;;;;68.50;50.00;;;;;-1.33;100.00;100332.19;6280647;20;2872140;-39
2022/01/27 03:10:33;;;;;;;;;50.50;44.00;;;;;-1.09;100.00;100345.31;6281807;20;2852488;-39
2022/01/27 03:13:01;;;;;;;;;57.00;40.50;;;;;-0.81;100.00;100346.06;6274263;20;2502352;-41
2022/01/27 03:15:29;;;;;;;;;59.50;40.00;;;;;-0.84;100.00;100328.50;6276547;20;2500346;-39
2022/01/27 03:17:57;;;;;;;;;52.00;43.00;;;;;-0.70;100.00;100331.94;6284979;20;2863881;-41
2022/01/27 03:20:38;;;;;;;;;52.33;43.67;;;;;-0.74;100.00;100327.59;6284001;20;2866026;-39
2022/01/27 03:23:07;;;;;;;;;49.50;37.50;;;;;-0.52;100.00;100330.09;6313077;20;2870028;-40
2022/01/27 03:25:35;;;;;;;;;52.50;40.00;;;;;-0.69;100.00;100348.63;6282146;20;2862740;-39
2022/01/27 03:28:04;;;;;;;;;49.00;37.00;;;;;-0.64;100.00;100340.69;6285848;20;2500237;-39
2022/01/27 03:30:32;;;;;;;;;51.50;34.50;;;;;-0.58;100.00;100338.91;6281305;20;2500303;-41
2022/01/27 03:33:01;;;;;;;;;54.50;37.00;;;;;-0.60;100.00;100330.13;6284291;20;2875408;-39
2022/01/27 03:35:29;;;;;;;;;52.00;40.00;;;;;-0.48;100.00;100323.91;6280628;20;2500269;-39
2022/01/27 03:37:56;;;;;;;;;45.00;27.00;;;;;-0.37;100.00;100327.38;6278864;20;2496348;-39
2022/01/27 03:40:24;;;;;;;;;51.50;41.00;;;;;-0.44;100.00;100330.91;6282339;20;2500354;-39
2022/01/27 03:43:05;;;;;;;;;43.00;38.00;;;;;-0.46;100.00;100337.97;6281629;20;2855460;-39
2022/01/27 03:45:33;;;;;;;;;40.50;33.00;;;;;-0.49;100.00;100348.53;6280010;20;2500438;-39
2022/01/27 03:48:02;;;;;;;;;51.00;35.00;;;;;-0.48;100.00;100339.72;6279979;20;2500248;-39
2022/01/27 03:50:29;;;;;;;;;59.50;43.00;;;;;-0.24;100.00;100347.50;6279956;20;2500272;-41
2022/01/27 03:52:58;;;;;;;;;46.00;36.00;;;;;-0.08;100.00;100339.44;6281839;20;2870476;-39
2022/01/27 03:55:27;;;;;;;;;46.50;36.50;;;;;0.09;100.00;100342.84;6281081;20;2500397;-39
2022/01/27 03:57:55;;;;;;;;;51.50;38.00;;;;;-0.02;100.00;100344.69;6283182;20;2872254;-39
2022/01/27 04:00:24;;;;;;;;;55.00;39.00;;;;;-0.03;100.00;100340.28;6282048;20;2867042;-39
2022/01/27 04:02:59;;;;;;;;;43.00;38.50;;;;;0.02;100.00;100335.84;6282444;20;2863824;-39
2022/01/27 04:05:35;;;;;;;;;29.33;26.33;;;;;0.04;100.00;100339.34;6283243;20;3589843;-39
2022/01/27 04:08:08;;;;;;;;;52.00;41.00;;;;;0.05;100.00;100340.22;6283687;20;2873300;-39
2022/01/27 04:10:38;;;;;;;;;43.00;36.50;;;;;0.09;100.00;100336.69;6283341;20;2868009;-39
2022/01/27 04:13:08;;;;;;;;;40.00;35.00;;;;;0.11;100.00;100341.06;6279241;20;2500271;-39
2022/01/27 04:15:42;;;;;;;;;37.67;32.00;;;;;0.12;100.00;100339.28;6281849;20;3583555;-40
2022/01/27 04:18:13;;;;;;;;;49.00;37.00;;;;;0.11;100.00;100341.06;6281591;20;2881559;-39
2022/01/27 04:20:43;;;;;;;;;48.00;38.50;;;;;0.02;100.00;100338.47;6311515;20;2866906;-39
2022/01/27 04:23:12;;;;;;;;;56.33;43.67;;;;;-0.01;100.00;100339.38;6280957;20;2879493;-39
2022/01/27 04:25:41;;;;;;;;;60.00;45.00;;;;;0.06;100.00;100337.59;6312917;20;2871121;-39
2022/01/27 04:28:12;;;;;;;;;49.50;38.00;;;;;0.25;100.00;100342.72;6279348;20;2500246;-41
2022/01/27 04:30:41;;;;;;;;;48.50;39.00;;;;;0.04;100.00;100338.47;6283219;20;2869205;-39
2022/01/27 04:33:10;;;;;;;;;50.50;40.00;;;;;0.16;100.00;100354.22;6280931;20;2885767;-39
2022/01/27 04:35:45;;;;;;;;;58.00;46.00;;;;;0.14;100.00;100346.31;6280168;20;2859715;-39
2022/01/27 04:38:20;;;;;;;;;50.00;42.50;;;;;-0.03;100.00;100337.66;6277821;20;2500252;-39
2022/01/27 04:43:52;;;;;;;;;54.00;43.00;;;;;0.17;100.00;100348.91;6282154;20;2865805;-40
2022/01/27 04:46:29;;;;;;;;;52.50;38.00;;;;;0.29;100.00;100352.34;6282469;20;2500273;-39
2022/01/27 04:49:01;;;;;;;;;65.00;49.50;;;;;0.41;100.00;100350.47;6283889;20;2498252;-38
2022/01/27 04:51:30;;;;;;;;;55.50;46.00;;;;;0.31;100.00;100347.91;6285136;20;2875373;-39
2022/01/27 04:54:08;;;;;;;;;62.50;44.00;;;;;0.36;100.00;100344.34;6286167;20;2863840;-39
2022/01/27 04:56:38;;;;;;;;;42.50;38.50;;;;;0.49;100.00;100346.88;6284047;20;2500209;-48
2022/01/27 04:59:19;;;;;;;;;56.67;39.00;;;;;0.30;100.00;100348.81;6287148;20;2879407;-39
2022/01/27 05:01:53;;;;;;;;;56.50;44.00;;;;;0.44;99.83;100341.63;6318397;20;2863845;-38
2022/01/27 05:04:25;;;;;;;;;49.50;35.00;;;;;0.41;99.66;100344.31;6285924;20;2866944;-39
2022/01/27 05:06:54;;;;;;;;;50.00;40.00;;;;;0.53;99.24;100344.19;6286291;20;2867949;-39
2022/01/27 05:09:24;;;;;;;;;42.00;29.00;;;;;0.44;99.46;100344.28;6288285;20;2859691;-39
2022/01/27 05:12:07;;;;;;;;;58.00;45.00;;;;;0.33;99.44;100341.75;6288280;20;2861705;-39
2022/01/27 05:14:36;;;;;;;;;62.50;45.50;;;;;0.26;99.89;100329.47;6285851;20;2879412;-39
2022/01/27 05:17:05;;;;;;;;;51.50;38.50;;;;;0.22;100.00;100323.34;6283043;20;2865870;-39
2022/01/27 05:19:33;;;;;;;;;63.00;47.00;;;;;0.30;100.00;100318.00;6285501;20;2861210;-39
2022/01/27 05:22:02;;;;;;;;;64.00;48.50;;;;;0.27;100.00;100330.38;6283438;20;2489854;-39
2022/01/27 05:24:31;;;;;;;;;68.00;50.00;;;;;0.25;100.00;100326.88;6286635;20;2865202;-38
2022/01/27 05:27:01;;;;;;;;;70.33;50.00;;;;;0.29;100.00;100325.94;6285235;20;2879500;-39
2022/01/27 05:29:30;;;;;;;;;59.50;43.50;;;;;0.28;100.00;100332.97;6316916;20;2868005;-39
2022/01/27 05:31:58;;;;;;;;;51.00;41.00;;;;;0.33;99.72;100327.66;6287632;20;2835692;-40
2022/01/27 05:34:26;;;;;;;;;53.00;42.00;;;;;0.24;100.00;100336.56;6280769;20;2500261;-39
2022/01/27 05:36:54;;;;;;;;;47.00;38.00;;;;;0.29;100.00;100333.84;6282859;20;2502362;-39
2022/01/27 05:39:24;;;;;;;;;60.67;44.33;;;;;0.36;99.85;100325.00;6285351;20;2885841;-39
2022/01/27 05:41:53;;;;;;;;;65.33;45.00;;;;;0.45;99.86;100322.28;6318259;20;2877346;-39
2022/01/27 05:44:22;;;;;;;;;56.00;44.50;;;;;0.53;98.79;100323.06;6315720;20;2853367;-39
2022/01/27 05:46:50;;;;;;;;;54.00;38.00;;;;;0.38;98.83;100317.94;6283215;20;2504435;-39
2022/01/27 05:49:20;;;;;;;;;66.00;45.00;;;;;0.53;98.16;100311.63;6317546;20;2881536;-38
2022/01/27 05:51:49;;;;;;;;;62.00;47.67;;;;;0.48;98.21;100319.59;6318006;20;2866968;-38
2022/01/27 05:54:19;;;;;;;;;67.00;45.33;;;;;0.52;98.10;100313.38;6314179;20;2879598;-38
2022/01/27 05:56:47;;;;;;;;;35.00;30.00;;;;;0.60;97.75;100308.00;6312988;20;2500257;-38
2022/01/27 05:59:16;;;;;;;;;56.00;37.00;;;;;0.65;96.98;100311.47;6284579;20;2879588;-38
2022/01/27 06:01:45;;;;;;;;;59.00;44.00;;;;;0.62;97.25;100306.22;6318418;20;2855522;-39
2022/01/27 06:04:14;;;;;;;;;59.50;41.00;;;;;0.55;97.43;100299.25;6283860;20;2874219;-38
2022/01/27 06:06:44;;;;;;;;;64.67;47.33;;;;;0.45;97.51;100306.41;6283881;20;2872302;-38
2022/01/27 06:09:13;;;;;;;;;53.50;40.50;;;;;0.37;97.85;100301.22;6318731;20;2871072;-38
2022/01/27 06:11:42;;;;;;;;;55.50;43.00;;;;;0.45;97.92;100306.41;6285627;20;2865853;-39
2022/01/27 06:14:15;;;;;;;;;58.00;44.50;;;;;0.58;96.92;100305.41;6279821;20;2505470;-39
2022/01/27 06:16:45;;;;;;;;;53.50;44.00;;;;;0.46;96.95;100310.81;6285668;20;2861702;-39
2022/01/27 06:19:15;;;;;;;;;57.00;42.00;;;;;0.63;96.53;100306.22;6283720;20;2856568;-38
2022/01/27 06:21:44;;;;;;;;;49.00;37.00;;;;;0.64;96.22;100300.03;6281685;20;2500234;-39
2022/01/27 06:24:13;;;;;;;;;62.67;43.33;;;;;0.65;96.93;100309.69;6284347;20;2883561;-38
2022/01/27 06:26:43;;;;;;;;;67.00;46.67;;;;;0.60;96.45;100303.59;6317901;20;3634591;-39
2022/01/27 06:29:12;;;;;;;;;59.00;46.00;;;;;0.44;97.41;100308.16;6316483;20;2872246;-38
2022/01/27 06:31:41;;;;;;;;;61.67;43.67;;;;;0.44;97.70;100302.00;6280278;20;2880582;-40
2022/01/27 06:34:09;;;;;;;;;60.00;45.00;;;;;0.46;97.41;100302.88;6315006;20;2870086;-38
2022/01/27 06:36:39;;;;;;;;;74.33;52.33;;;;;0.41;97.81;100302.03;6285471;20;2880559;-39
2022/01/27 06:39:08;;;;;;;;;62.00;45.00;;;;;0.49;97.90;100301.97;6310718;20;2872113;-38
2022/01/27 06:41:37;;;;;;;;;65.67;42.33;;;;;0.66;97.03;100318.53;6282764;20;3639857;-39
2022/01/27 06:44:17;;;;;;;;;66.00;48.00;;;;;0.64;96.23;100312.38;6309159;20;2496089;-39
2022/01/27 06:46:46;;;;;;;;;47.00;41.50;;;;;0.56;96.28;100323.03;6282327;20;2866933;-38
2022/01/27 06:49:16;;;;;;;;;61.00;46.00;;;;;0.72;96.23;100328.16;6286470;20;2864844;-39
2022/01/27 06:51:46;;;;;;;;;45.00;36.00;;;;;0.88;95.69;100335.88;6284172;20;2865890;-39
2022/01/27 06:54:16;;;;;;;;;48.50;39.50;;;;;0.87;95.17;100333.28;6281098;20;2500268;-39
2022/01/27 06:56:45;;;;;;;;;57.50;45.50;;;;;0.99;95.35;100333.09;6284103;20;2857714;-38
2022/01/27 06:59:15;;;;;;;;;53.33;37.33;;;;;1.06;94.50;100339.22;6284156;20;2881573;-38
2022/01/27 07:01:44;;;;;;;;;44.00;41.50;;;;;1.10;94.97;100339.13;6316733;20;2850362;-39
2022/01/27 07:04:12;;;;;;;;;45.50;40.50;;;;;1.01;94.59;100331.31;6276408;20;2500551;-38
2022/01/27 07:06:42;;;;;;;;;64.67;49.00;;;;;1.05;94.86;100322.47;6284204;20;2876439;-38
2022/01/27 07:09:11;;;;;;;;;53.00;45.00;;;;;1.02;94.76;100316.31;6313363;20;2861743;-38
2022/01/27 07:11:40;;;;;;;;;62.50;46.00;;;;;1.04;94.72;100326.00;6286252;20;2873194;-38
2022/01/27 07:14:08;;;;;;;;;57.50;44.00;;;;;0.98;94.69;100315.50;6282989;20;2868160;-38
2022/01/27 07:16:37;;;;;;;;;51.00;43.50;;;;;1.08;95.15;100322.44;6280467;20;2492994;-38
2022/01/27 07:19:07;;;;;;;;;55.67;42.00;;;;;1.23;94.51;100331.03;6283447;20;3628349;-38
2022/01/27 07:21:37;;;;;;;;;56.67;42.67;;;;;1.18;93.51;100335.50;6313586;20;2871143;-38
2022/01/27 07:24:07;;;;;;;;;66.00;45.67;;;;;1.06;93.96;100324.22;6309357;20;3639823;-38
2022/01/27 07:26:36;;;;;;;;;51.50;41.50;;;;;1.16;93.90;100313.50;6314873;20;2853397;-38
2022/01/27 07:29:04;;;;;;;;;57.50;48.00;;;;;1.11;94.03;100310.94;6283499;20;2855485;-38
2022/01/27 07:31:34;;;;;;;;;59.33;45.00;;;;;1.05;94.37;100311.91;6283400;20;2863898;-38
2022/01/27 07:34:03;;;;;;;;;57.50;46.00;;;;;1.24;93.95;100306.38;6314282;20;2852326;-38
2022/01/27 07:36:33;;;;;;;;;75.67;58.00;;;;;1.24;94.20;100309.88;6282777;20;3637753;-38
2022/01/27 07:39:03;;;;;;;;;83.33;62.33;;;;;1.34;93.06;100305.31;6314406;20;2884746;-38
2022/01/27 07:41:37;;;;;;;;;88.50;69.50;;;;;1.38;93.47;100304.38;6311926;20;2871068;-37
2022/01/27 07:44:07;;;;;;;;;95.67;69.33;;;;;1.30;93.19;100295.69;6276613;20;3661099;-38
2022/01/27 07:46:37;;;;;;;;;68.00;52.00;;;;;1.41;93.50;100303.47;6315765;20;2873302;-38
2022/01/27 07:49:06;;;;;;;;;61.00;45.00;;;;;1.45;92.83;100305.16;6311628;20;2866920;-38
2022/01/27 07:51:34;;;;;;;;;62.00;49.00;;;;;1.41;92.98;100306.97;6282617;20;2493025;-38
2022/01/27 07:54:03;;;;;;;;;61.50;47.50;;;;;1.42;92.60;100302.56;6282933;20;2850406;-38
2022/01/27 07:56:33;;;;;;;;;46.50;39.50;;;;;1.57;92.29;100298.81;6283081;20;2865961;-38
2022/01/27 07:59:04;;;;;;;;;63.67;43.33;;;;;1.83;91.93;100299.28;6282197;20;3632650;-39
2022/01/27 08:01:33;;;;;;;;;56.33;43.00;;;;;2.01;90.98;100303.41;6310529;20;2868065;-38
2022/01/27 08:04:03;;;;;;;;;57.33;42.67;;;;;2.14;90.49;100299.66;6314966;20;3627407;-37
2022/01/27 08:06:33;;;;;;;;;63.33;44.00;;;;;2.22;90.64;100298.66;6314184;20;3633618;-38
2022/01/27 08:09:03;;;;;;;;;60.00;43.67;;;;;2.08;90.65;100312.13;6312081;20;3604817;-38
2022/01/27 08:11:33;;;;;;;;;65.33;49.00;;;;;2.00;90.47;100314.03;6314240;20;2877463;-37
2022/01/27 08:14:03;;;;;;;;;73.33;51.67;;;;;2.07;90.91;100305.97;6311549;20;3646087;-38
2022/01/27 08:16:31;;;;;;;;;65.50;51.00;;;;;2.26;90.42;100303.84;6313507;20;2869039;-37
2022/01/27 08:19:00;;;;;;;;;61.50;48.00;;;;;2.26;89.62;100300.34;6283660;20;2870102;-38
2022/01/27 08:21:30;;;;;;;;;61.33;44.00;;;;;2.29;89.37;100297.63;6279680;20;2868092;-37
2022/01/27 08:23:59;;;;;;;;;58.00;43.50;;;;;2.32;89.68;100295.81;6310214;20;2867952;-38
2022/01/27 08:29:11;;;;;;;;;52.50;42.00;;;;;2.45;88.48;100282.31;6315211;20;2851344;-38
2022/01/27 08:34:33;;;;;;;;;49.67;40.67;;;;;2.80;87.50;100271.06;6315604;20;2868967;-38
2022/01/27 08:37:18;;;;;;;;;50.00;40.50;;;;;2.62;86.67;100272.28;6316099;20;2864837;-40
2022/01/27 08:39:48;;;;;;;;;54.67;42.00;;;;;2.65;86.55;100264.25;6285524;20;2857625;-38
2022/01/27 08:42:18;;;;;;;;;59.33;39.33;;;;;2.60;86.88;100260.84;6313756;20;2874375;-38
2022/01/27 08:44:47;;;;;;;;;63.00;43.00;;;;;2.98;86.06;100275.09;6315264;20;2875356;-38
2022/01/27 08:47:18;;;;;;;;;65.00;48.00;;;;;3.05;87.39;100282.00;6315213;20;2874354;-38
2022/01/27 08:49:47;;;;;;;;;51.50;42.50;;;;;2.86;86.31;100279.75;6286486;20;2851273;-37
2022/01/27 08:52:17;;;;;;;;;52.33;42.67;;;;;2.53;86.87;100283.09;6285957;20;2870159;-38
2022/01/27 08:54:46;;;;;;;;;55.50;45.00;;;;;2.60;86.58;100285.56;6315483;20;2857699;-37
2022/01/27 08:57:15;;;;;;;;;60.67;41.33;;;;;2.83;85.92;100292.19;6285104;20;2880444;-37
2022/01/27 08:59:45;;;;;;;;;57.50;44.50;;;;;2.93;85.50;100282.28;6317809;20;2860650;-37
2022/01/27 09:02:15;;;;;;;;;57.00;43.67;;;;;2.81;85.34;100294.88;6282826;20;2866995;-37
2022/01/27 09:04:43;;;;;;;;;59.00;43.50;;;;;2.69;85.57;100284.53;6315417;20;2857677;-37
2022/01/27 09:07:15;;;;;;;;;50.33;37.00;;;;;3.02;85.58;100284.72;6284838;20;2877351;-37
2022/01/27 09:09:45;;;;;;;;;48.50;37.00;;;;;3.22;84.29;100279.88;6317530;20;2861721;-37
2022/01/27 09:12:15;;;;;;;;;48.00;41.50;;;;;3.52;82.74;100274.78;6283881;20;2853353;-38
2022/01/27 09:14:45;;;;;;;;;40.00;37.00;;;;;3.55;82.47;100282.66;6284291;20;2860671;-38
2022/01/27 09:17:15;;;;;;;;;42.67;33.67;;;;;3.32;82.83;100285.84;6282970;20;2862885;-37
2022/01/27 09:19:48;;;;;;;;;48.00;40.00;;;;;3.28;83.54;100293.00;6315573;20;2852436;-37
2022/01/27 09:22:19;;;;;;;;;60.50;44.50;;;;;3.12;83.08;100282.75;6281477;20;2863760;-37
2022/01/27 09:24:56;;;;;;;;;53.00;41.33;;;;;3.05;83.78;100292.63;6282112;20;3607487;-37
2022/01/27 09:27:28;;;;;;;;;52.67;42.00;;;;;2.96;83.45;100288.38;6314919;20;3604358;-37
2022/01/27 09:29:58;;;;;;;;;56.00;41.00;;;;;3.06;84.68;100295.25;6316120;20;2860710;-37
2022/01/27 09:32:28;;;;;;;;;47.00;39.00;;;;;2.96;83.49;100290.16;6285851;20;2874688;-37
2022/01/27 09:35:04;;;;;;;;;45.33;40.00;;;;;3.35;82.55;100291.09;6319547;20;2863897;-38
2022/01/27 09:37:34;;;;;;;;;68.00;46.33;;;;;3.73;81.16;100284.88;6319728;20;2884753;-37
2022/01/27 09:40:08;;;;;;;;;47.67;39.00;;;;;3.94;80.01;100274.66;6321160;20;2871093;-37
2022/01/27 09:42:38;;;;;;;;;54.00;41.00;;;;;3.97;79.47;100285.19;6318724;20;2865980;-37
2022/01/27 09:45:09;;;;;;;;;68.33;47.00;;;;;4.18;79.44;100268.69;6320216;20;2877490;-37
2022/01/27 09:47:41;;;;;;;;;52.00;44.00;;;;;4.13;79.07;100262.66;6319430;20;2850232;-37
2022/01/27 09:50:27;;;;;;;;;49.50;42.00;;;;;3.77;79.55;100277.72;6289369;20;2834625;-37
2022/01/27 09:52:57;;;;;;;;;63.33;44.00;;;;;3.81;79.45;100275.88;6290115;20;2860654;-37
2022/01/27 09:55:26;;;;;;;;;51.50;39.50;;;;;3.69;80.48;100267.28;6318701;20;2852309;-37
2022/01/27 09:58:03;;;;;;;;;46.00;35.00;;;;;3.71;79.68;100265.47;6287921;20;2866955;-37
2022/01/27 10:00:33;;;;;;;;;44.00;34.00;;;;;4.34;78.93;100278.94;6289341;20;2866992;-38
2022/01/27 10:03:16;;;;;;;;;36.50;33.50;;;;;4.30;77.79;100277.28;6322139;20;2842051;-38
2022/01/27 10:05:46;;;;;;;;;50.00;34.50;;;;;4.53;77.87;100280.19;6290811;20;2879543;-37
2022/01/27 10:08:19;;;;;;;;;44.67;36.67;;;;;4.62;76.28;100279.94;6287940;20;2872231;-37
2022/01/27 10:10:53;;;;;;;;;51.33;37.33;;;;;4.85;77.15;100281.09;6319735;20;3628312;-38
2022/01/27 10:13:40;;;;;;;;;46.67;38.33;;;;;3.93;77.45;100273.78;6321710;20;2860827;-38
2022/01/27 10:16:31;;;;;;;;;42.33;35.67;;;;;4.04;77.55;100268.19;6322932;20;3598100;-37
2022/01/27 10:19:08;;;;;;;;;47.00;38.00;;;;;4.35;77.19;100278.03;6287512;20;2879550;-37
2022/01/27 10:21:39;;;;;;;;;49.50;41.00;;;;;4.34;77.77;100265.63;6320222;20;2862777;-38
2022/01/27 10:24:31;;;;;;;;;46.00;39.00;;;;;4.27;77.01;100253.44;6286358;20;2856581;-37
2022/01/27 10:27:20;;;;;;;;;49.00;37.67;;;;;4.31;77.99;100242.66;6288317;20;2874278;-38
2022/01/27 10:32:46;;;;;;;;;42.00;37.00;;;;;3.99;77.46;100237.34;6288774;20;2853347;-37
2022/01/27 10:35:25;;;;;;;;;46.33;36.67;;;;;4.32;76.88;100232.94;6287068;20;2879555;-38
2022/01/27 10:38:12;;;;;;;;;37.00;32.00;;;;;4.30;76.40;100229.44;6318696;20;2850771;-37
2022/01/27 10:40:49;;;;;;;;;47.33;39.00;;;;;4.26;76.40;100228.63;6288596;20;3623168;-37
2022/01/27 10:43:23;;;;;;;;;38.50;34.00;;;;;4.11;76.40;100219.31;6320050;20;2841914;-38
2022/01/27 10:46:22;;;;;;;;;40.00;30.00;;;;;4.05;76.96;100205.28;6289141;20;2875254;-38
2022/01/27 10:49:09;;;;;;;;;43.50;34.50;;;;;4.17;77.51;100197.00;6320213;20;2856507;-37
2022/01/27 10:51:45;;;;;;;;;39.50;34.50;;;;;4.01;76.46;100193.03;6287240;20;2852409;-38
2022/01/27 10:54:23;;;;;;;;;30.00;23.50;;;;;4.42;76.20;100191.88;6284406;20;2500261;-37
2022/01/27 10:56:51;;;;;;;;;44.50;36.00;;;;;4.26;75.89;100182.59;6288429;20;2866978;-37
2022/01/27 10:59:21;;;;;;;;;35.50;31.00;;;;;4.07;76.48;100187.53;6287140;20;2836853;-37
2022/01/27 11:01:51;;;;;;;;;50.67;37.00;;;;;4.56;75.38;100184.38;6289723;20;2883195;-38
2022/01/27 11:04:34;;;;;;;;;52.50;33.00;;;;;4.82;75.21;100177.44;6319024;20;3644039;-38
2022/01/27 11:07:09;;;;;;;;;49.33;37.00;;;;;5.64;72.09;100191.69;6320523;20;2870141;-38
2022/01/27 11:09:43;;;;;;;;;45.50;37.00;;;;;5.08;74.05;100195.22;6319149;20;2850233;-37
2022/01/27 11:12:17;;;;;;;;;49.00;33.33;;;;;4.70;74.25;100191.09;6289258;20;3614947;-37
2022/01/27 11:14:49;;;;;;;;;46.33;33.67;;;;;4.80;74.07;100189.91;6317660;20;2877366;-37
2022/01/27 11:17:19;;;;;;;;;50.33;39.00;;;;;4.65;74.13;100179.72;6318702;20;3616946;-38
2022/01/27 11:20:05;;;;;;;;;43.67;38.33;;;;;4.69;73.76;100178.72;6319331;20;2869156;-38
2022/01/27 11:22:57;;;;;;;;;41.67;38.00;;;;;4.80;73.66;100179.25;6315240;20;2873201;-38
2022/01/27 11:28:05;;;;;;;;;44.33;38.67;;;;;5.05;72.01;100174.94;6317061;20;2863829;-38
2022/01/27 11:31:33;;;;;;;;;36.00;34.00;;;;;5.21;72.37;100170.00;6317177;20;2847127;-38
2022/01/27 11:34:08;;;;;;;;;51.00;37.00;;;;;5.15;71.42;100161.31;6287176;20;3626303;-37
2022/01/27 11:36:39;;;;;;;;;38.67;29.00;;;;;5.25;71.50;100160.13;6315674;20;2867938;-39
2022/01/27 11:39:12;;;;;;;;;35.33;33.33;;;;;5.34;71.85;100138.50;6319004;20;2859654;-38
2022/01/27 11:41:48;;;;;;;;;40.00;30.00;;;;;5.38;71.45;100147.28;6319409;20;2861679;-38
2022/01/27 11:44:36;;;;;;;;;44.33;37.33;;;;;4.97;71.62;100153.00;6317000;20;2870286;-37
2022/01/27 11:47:09;;;;;;;;;41.00;38.33;;;;;5.11;72.01;100143.69;6315693;20;2857619;-38
2022/01/27 11:50:22;;;;;;;;;45.00;31.67;;;;;5.13;71.46;100144.53;6319405;20;2864959;-38
2022/01/27 11:52:56;;;;;;;;;56.00;40.00;;;;;5.61;69.37;100139.41;6319314;20;2862845;-39
2022/01/27 11:55:25;;;;;;;;;37.50;33.00;;;;;5.54;70.85;100148.50;6314504;20;2856560;-39
2022/01/27 11:58:12;;;;;;;;;50.00;40.00;;;;;5.84;69.98;100140.38;6288389;20;2848255;-38
2022/01/27 12:01:10;;;;;;;;;42.00;34.33;;;;;5.46;69.21;100134.59;6285636;20;2871256;-37
2022/01/27 12:04:11;;;;;;;;;38.00;34.67;;;;;5.49;69.53;100135.34;6316923;20;2856533;-37
2022/01/27 12:06:49;;;;;;;;;28.50;26.50;;;;;5.58;68.83;100127.97;6318019;20;2848130;-38
2022/01/27 12:09:17;;;;;;;;;30.00;26.50;;;;;5.59;69.28;100129.72;6287824;20;2849248;-38
2022/01/27 12:12:06;;;;;;;;;37.00;32.50;;;;;5.31;69.19;100122.63;6285457;20;2860688;-37
2022/01/27 12:14:40;;;;;;;;;45.67;30.67;;;;;5.66;68.87;100110.81;6282740;20;2886852;-39